createdAt,value
2022-11-02T00:01:35.168Z,55.11
2022-11-02T00:04:04.022Z,54.80
2022-11-02T00:06:31.473Z,54.88
2022-11-02T00:08:59.027Z,54.83
2022-11-02T00:11:26.949Z,55.04
2022-11-02T00:13:54.440Z,54.82
2022-11-02T00:16:22.073Z,54.92
2022-11-02T00:18:53.985Z,54.98
2022-11-02T00:21:22.789Z,55.18
2022-11-02T00:23:50.390Z,55.37
2022-11-02T00:26:17.893Z,54.56
2022-11-02T00:28:45.358Z,55.19
2022-11-02T00:31:12.829Z,55.23
2022-11-02T00:33:40.295Z,54.93
2022-11-02T00:36:08.235Z,55.03
2022-11-02T00:38:37.024Z,54.88
2022-11-02T00:41:04.471Z,54.69
2022-11-02T00:43:31.932Z,55.10
2022-11-02T00:45:59.412Z,55.13
2022-11-02T00:48:26.918Z,54.93
2022-11-02T00:50:54.430Z,55.01
2022-11-02T00:53:21.876Z,54.87
2022-11-02T00:55:51.249Z,55.19
2022-11-02T00:58:18.724Z,55.28
2022-11-02T01:00:46.178Z,55.13
2022-11-02T01:03:13.621Z,55.28
2022-11-02T01:05:41.073Z,55.04
2022-11-02T01:08:08.532Z,55.15
2022-11-02T01:10:35.993Z,54.97
2022-11-02T01:13:04.766Z,55.15
2022-11-02T01:15:32.224Z,55.24
2022-11-02T01:17:59.678Z,55.27
2022-11-02T01:20:27.113Z,55.06
2022-11-02T01:22:54.698Z,55.09
2022-11-02T01:25:22.160Z,55.09
2022-11-02T01:27:49.584Z,55.27
2022-11-02T01:30:18.451Z,55.24
2022-11-02T01:32:45.904Z,55.21
2022-11-02T01:35:13.341Z,55.25
2022-11-02T01:37:41.208Z,55.01
2022-11-02T01:40:09.833Z,54.97
2022-11-02T01:42:37.273Z,55.06
2022-11-02T01:45:05.251Z,55.14
2022-11-02T01:47:37.739Z,55.40
2022-11-02T01:50:06.606Z,55.10
2022-11-02T01:52:35.444Z,55.21
2022-11-02T01:55:05.628Z,55.25
2022-11-02T01:57:32.910Z,55.37
2022-11-02T02:00:03.699Z,55.45
2022-11-02T02:02:31.231Z,55.46
2022-11-02T02:05:01.079Z,55.58
2022-11-02T02:07:28.540Z,55.50
2022-11-02T02:09:56.018Z,55.57
2022-11-02T02:12:23.603Z,55.50
2022-11-02T02:14:51.130Z,55.48
2022-11-02T02:17:25.738Z,55.41
2022-11-02T02:19:54.925Z,55.52
2022-11-02T02:22:58.246Z,55.57
2022-11-02T02:26:02.070Z,55.56
2022-11-02T02:28:33.532Z,55.62
2022-11-02T02:31:02.816Z,55.54
2022-11-02T02:33:31.732Z,55.67
2022-11-02T02:36:00.983Z,55.82
2022-11-02T02:38:30.180Z,55.56
2022-11-02T02:40:59.512Z,55.38
2022-11-02T02:43:29.759Z,55.56
2022-11-02T02:46:00.261Z,55.54
2022-11-02T02:48:28.637Z,55.47
2022-11-02T02:50:58.694Z,55.65
2022-11-02T02:53:29.160Z,55.43
2022-11-02T02:55:56.768Z,55.83
2022-11-02T02:58:26.353Z,55.57
2022-11-02T03:00:53.855Z,55.82
2022-11-02T03:03:26.429Z,55.58
2022-11-02T03:06:00.572Z,55.45
2022-11-02T03:08:28.088Z,55.74
2022-11-02T03:10:58.109Z,55.88
2022-11-02T03:13:35.956Z,55.79
2022-11-02T03:16:04.512Z,55.76
2022-11-02T03:18:37.089Z,55.96
2022-11-02T03:21:07.535Z,55.53
2022-11-02T03:23:36.850Z,55.92
2022-11-02T03:26:06.799Z,55.69
2022-11-02T03:28:52.858Z,56.03
2022-11-02T03:31:26.520Z,55.84
2022-11-02T03:33:57.624Z,56.01
2022-11-02T03:36:28.296Z,55.91
2022-11-02T03:38:57.353Z,55.95
2022-11-02T03:41:24.873Z,55.92
2022-11-02T03:43:54.497Z,56.17
2022-11-02T03:46:21.945Z,55.89
2022-11-02T03:48:50.016Z,55.99
2022-11-02T03:51:20.111Z,55.99
2022-11-02T03:53:48.699Z,55.89
2022-11-02T03:56:19.948Z,56.15
2022-11-02T03:58:47.376Z,56.04
2022-11-02T04:01:14.918Z,56.06
2022-11-02T04:03:44.027Z,56.35
2022-11-02T04:06:12.723Z,56.29
2022-11-02T04:08:42.570Z,56.14
2022-11-02T04:11:27.633Z,56.35
2022-11-02T04:14:12.805Z,56.26
2022-11-02T04:16:40.245Z,56.24
2022-11-02T04:19:25.218Z,56.14
2022-11-02T04:22:10.489Z,56.57
2022-11-02T04:24:57.103Z,56.48
2022-11-02T04:27:24.548Z,56.65
2022-11-02T04:29:52.013Z,56.21
2022-11-02T04:32:39.654Z,56.24
2022-11-02T04:35:07.433Z,56.14
2022-11-02T04:37:56.770Z,55.97
2022-11-02T04:40:25.618Z,56.32
2022-11-02T04:42:53.070Z,56.30
2022-11-02T04:45:20.621Z,56.46
2022-11-02T04:47:48.091Z,56.48
2022-11-02T04:50:15.575Z,56.42
2022-11-02T04:52:42.986Z,56.36
2022-11-02T04:55:10.745Z,56.34
2022-11-02T04:57:39.508Z,56.54
2022-11-02T05:00:08.620Z,56.41
2022-11-02T05:02:36.103Z,56.41
2022-11-02T05:05:06.023Z,56.73
2022-11-02T05:07:33.506Z,56.67
2022-11-02T05:10:00.965Z,56.58
2022-11-02T05:12:29.416Z,56.25
2022-11-02T05:14:58.306Z,56.36
2022-11-02T05:17:25.732Z,56.46
2022-11-02T05:19:53.218Z,56.46
2022-11-02T05:22:21.288Z,56.69
2022-11-02T05:24:48.753Z,56.70
2022-11-02T05:27:16.207Z,56.67
2022-11-02T05:29:43.708Z,56.78
2022-11-02T05:32:12.467Z,56.68
2022-11-02T05:34:39.907Z,56.53
2022-11-02T05:37:07.345Z,56.48
2022-11-02T05:39:35.415Z,56.66
2022-11-02T05:42:02.867Z,56.56
2022-11-02T05:44:30.356Z,56.48
2022-11-02T05:46:57.811Z,56.51
2022-11-02T05:49:26.620Z,56.40
2022-11-02T05:51:54.135Z,56.62
2022-11-02T05:54:21.730Z,56.62
2022-11-02T05:56:49.178Z,56.31
2022-11-02T05:59:16.667Z,56.81
2022-11-02T06:01:44.206Z,56.72
2022-11-02T06:04:11.901Z,56.70
2022-11-02T06:06:40.734Z,56.57
2022-11-02T06:09:08.348Z,56.49
2022-11-02T06:11:35.804Z,56.68
2022-11-02T06:14:03.710Z,56.80
2022-11-02T06:16:31.496Z,56.64
2022-11-02T06:18:58.946Z,56.97
2022-11-02T06:21:26.398Z,56.89
2022-11-02T06:23:55.194Z,56.98
2022-11-02T06:26:22.633Z,56.92
2022-11-02T06:28:50.072Z,56.82
2022-11-02T06:31:17.892Z,56.94
2022-11-02T06:33:45.473Z,57.04
2022-11-02T06:36:12.931Z,56.81
2022-11-02T06:38:41.841Z,57.03
2022-11-02T06:41:10.919Z,57.00
2022-11-02T06:43:38.496Z,56.84
2022-11-02T06:46:06.455Z,57.02
2022-11-02T06:48:35.623Z,56.80
2022-11-02T06:51:03.465Z,56.85
2022-11-02T06:53:30.945Z,56.42
2022-11-02T06:55:58.855Z,56.81
2022-11-02T06:58:27.675Z,56.77
2022-11-02T07:00:58.184Z,56.77
2022-11-02T07:03:25.734Z,56.67
2022-11-02T07:05:53.327Z,56.62
2022-11-02T07:08:20.962Z,56.41
2022-11-02T07:10:48.529Z,56.59
2022-11-02T07:13:16.000Z,56.38
2022-11-02T07:15:44.803Z,56.08
2022-11-02T07:18:12.407Z,56.39
2022-11-02T07:20:39.871Z,56.32
2022-11-02T07:23:08.718Z,56.31
2022-11-02T07:25:36.484Z,56.66
2022-11-02T07:28:04.221Z,56.72
2022-11-02T07:30:32.706Z,56.57
2022-11-02T07:33:01.784Z,56.51
2022-11-02T07:35:29.462Z,56.91
2022-11-02T07:37:57.700Z,57.14
2022-11-02T07:40:25.281Z,56.87
2022-11-02T07:42:53.814Z,57.12
2022-11-02T07:45:21.675Z,57.01
2022-11-02T07:47:49.315Z,57.12
2022-11-02T07:50:18.981Z,56.93
2022-11-02T07:52:47.126Z,56.92
2022-11-02T07:55:15.100Z,57.20
2022-11-02T07:57:43.592Z,57.24
2022-11-02T08:00:12.464Z,56.98
2022-11-02T08:02:40.145Z,56.23
2022-11-02T08:05:08.269Z,56.87
2022-11-02T08:07:37.025Z,57.01
2022-11-02T08:10:05.245Z,56.92
2022-11-02T08:12:32.801Z,57.12
2022-11-02T08:15:04.777Z,57.09
2022-11-02T08:17:34.747Z,57.36
2022-11-02T08:20:02.219Z,56.97
2022-11-02T08:22:29.675Z,57.41
2022-11-02T08:24:58.470Z,57.33
2022-11-02T08:27:25.945Z,57.38
2022-11-02T08:29:53.733Z,57.33
2022-11-02T08:32:21.158Z,57.41
2022-11-02T08:34:48.729Z,57.31
2022-11-02T08:37:16.203Z,57.12
2022-11-02T08:39:43.679Z,57.17
2022-11-02T08:42:12.579Z,56.99
2022-11-02T08:44:42.563Z,55.48
2022-11-02T08:47:10.315Z,55.76
2022-11-02T08:49:37.775Z,56.15
2022-11-02T08:52:05.411Z,56.29
2022-11-02T08:54:32.895Z,56.53
2022-11-02T08:57:00.350Z,56.47
2022-11-02T08:59:29.113Z,56.47
2022-11-02T09:01:56.837Z,56.60
2022-11-02T09:04:24.506Z,56.42
2022-11-02T09:06:52.046Z,56.74
2022-11-02T09:09:19.502Z,56.46
2022-11-02T09:11:47.018Z,56.71
2022-11-02T09:14:14.560Z,56.74
2022-11-02T09:16:43.477Z,56.58
2022-11-02T09:19:10.997Z,56.62
2022-11-02T09:21:38.472Z,56.77
2022-11-02T09:24:06.673Z,56.57
2022-11-02T09:26:34.167Z,56.66
2022-11-02T09:29:01.676Z,56.61
2022-11-02T09:31:29.328Z,52.24
2022-11-02T09:33:58.200Z,52.96
2022-11-02T09:36:25.625Z,53.77
2022-11-02T09:38:53.148Z,54.39
2022-11-02T09:41:22.311Z,54.70
2022-11-02T09:43:53.961Z,54.99
2022-11-02T09:46:25.352Z,54.09
2022-11-02T09:48:54.420Z,51.69
2022-11-02T09:51:24.123Z,51.64
2022-11-02T09:53:55.522Z,52.35
2022-11-02T09:56:22.967Z,52.35
2022-11-02T09:58:52.438Z,52.49
2022-11-02T10:01:38.270Z,52.57
2022-11-02T10:04:19.030Z,52.73
2022-11-02T10:06:51.525Z,53.08
2022-11-02T10:09:20.869Z,53.01
2022-11-02T10:11:52.162Z,51.46
2022-11-02T10:14:20.647Z,52.00
2022-11-02T10:16:51.030Z,52.22
2022-11-02T10:19:20.669Z,52.83
2022-11-02T10:21:50.722Z,52.88
2022-11-02T10:24:22.936Z,53.22
2022-11-02T10:26:50.359Z,53.81
2022-11-02T10:29:19.756Z,53.69
2022-11-02T10:31:48.456Z,53.67
2022-11-02T10:34:21.940Z,53.49
2022-11-02T10:36:55.153Z,53.58
2022-11-02T10:39:25.795Z,53.58
2022-11-02T10:42:00.299Z,53.63
2022-11-02T10:44:37.990Z,53.61
2022-11-02T10:47:09.844Z,53.73
2022-11-02T10:49:58.221Z,53.52
2022-11-02T10:52:26.991Z,53.72
2022-11-02T10:54:55.589Z,53.45
2022-11-02T10:57:23.997Z,52.61
2022-11-02T11:00:22.846Z,52.77
2022-11-02T11:03:07.742Z,52.66
2022-11-02T11:05:36.360Z,52.50
2022-11-02T11:08:06.179Z,52.41
2022-11-02T11:10:36.623Z,52.73
2022-11-02T11:13:04.530Z,52.92
2022-11-02T11:15:48.868Z,51.08
2022-11-02T11:21:06.933Z,51.94
2022-11-02T11:23:35.688Z,52.02
2022-11-02T11:26:03.809Z,52.10
2022-11-02T11:28:33.593Z,52.13
2022-11-02T11:31:11.895Z,52.01
2022-11-02T11:33:43.636Z,52.05
2022-11-02T11:36:11.255Z,51.64
2022-11-02T11:38:40.128Z,51.73
2022-11-02T11:41:07.565Z,51.71
2022-11-02T11:43:38.213Z,52.06
2022-11-02T11:46:07.331Z,51.49
2022-11-02T11:48:36.655Z,47.63
2022-11-02T11:51:04.373Z,47.88
2022-11-02T11:53:32.055Z,47.99
2022-11-02T11:56:00.992Z,48.44
2022-11-02T11:58:30.082Z,49.15
2022-11-02T12:01:09.303Z,49.40
2022-11-02T12:03:51.128Z,49.77
2022-11-02T12:06:23.421Z,50.42
2022-11-02T12:08:52.136Z,50.38
2022-11-02T12:11:27.632Z,46.40
2022-11-02T12:14:10.505Z,46.91
2022-11-02T12:16:52.505Z,47.27
2022-11-02T12:19:27.305Z,47.59
2022-11-02T12:22:02.353Z,46.27
2022-11-02T12:25:00.658Z,47.51
2022-11-02T12:27:34.134Z,48.32
2022-11-02T12:30:11.316Z,48.93
2022-11-02T12:32:48.418Z,46.39
2022-11-02T12:35:29.918Z,46.03
2022-11-02T12:38:22.511Z,46.66
2022-11-02T12:40:55.493Z,46.82
2022-11-02T12:43:37.831Z,47.17
2022-11-02T12:46:08.267Z,47.52
2022-11-02T12:48:40.251Z,47.62
2022-11-02T12:51:09.987Z,47.95
2022-11-02T12:53:43.325Z,48.12
2022-11-02T12:56:13.787Z,47.97
2022-11-02T12:58:42.545Z,47.94
2022-11-02T13:01:14.013Z,48.04
2022-11-02T13:03:45.540Z,48.56
2022-11-02T13:06:14.371Z,48.88
2022-11-02T13:08:44.899Z,49.13
2022-11-02T13:11:14.409Z,49.05
2022-11-02T13:13:45.943Z,49.12
2022-11-02T13:16:14.697Z,49.41
2022-11-02T13:18:43.645Z,49.70
2022-11-02T13:21:11.073Z,49.55
2022-11-02T13:23:39.595Z,49.85
2022-11-02T13:26:10.372Z,49.90
2022-11-02T13:28:43.111Z,50.26
2022-11-02T13:31:13.227Z,50.10
2022-11-02T13:33:41.815Z,47.17
2022-11-02T13:36:09.539Z,47.99
2022-11-02T13:38:38.474Z,48.50
2022-11-02T13:41:13.903Z,48.89
2022-11-02T13:43:53.351Z,49.11
2022-11-02T13:46:45.255Z,49.33
2022-11-02T13:49:14.229Z,49.29
2022-11-02T13:51:43.891Z,49.64
2022-11-02T13:54:13.826Z,49.88
2022-11-02T13:56:41.256Z,49.89
2022-11-02T13:59:10.871Z,50.16
2022-11-02T14:01:40.169Z,50.12
2022-11-02T14:04:08.133Z,50.19
2022-11-02T14:06:45.394Z,50.23
2022-11-02T14:09:18.570Z,48.87
2022-11-02T14:11:47.906Z,46.70
2022-11-02T14:14:25.792Z,44.70
2022-11-02T14:17:15.224Z,44.59
2022-11-02T14:19:53.619Z,43.84
2022-11-02T14:22:21.222Z,43.96
2022-11-02T14:25:08.576Z,44.69
2022-11-02T14:27:36.066Z,45.17
2022-11-02T14:30:05.562Z,45.16
2022-11-02T14:32:43.135Z,45.42
2022-11-02T14:35:19.687Z,45.78
2022-11-02T14:38:00.666Z,46.13
2022-11-02T14:40:30.523Z,45.12
2022-11-02T14:43:27.353Z,46.07
2022-11-02T14:46:09.334Z,46.17
2022-11-02T14:48:44.323Z,46.46
2022-11-02T14:51:16.673Z,46.81
2022-11-02T14:53:44.140Z,46.87
2022-11-02T14:56:11.579Z,47.19
2022-11-02T14:58:40.198Z,47.25
2022-11-02T15:01:13.416Z,47.31
2022-11-02T15:03:41.235Z,47.89
2022-11-02T15:06:17.369Z,47.88
2022-11-02T15:08:52.750Z,48.46
2022-11-02T15:11:45.561Z,48.53
2022-11-02T15:14:53.091Z,48.65
2022-11-02T15:18:06.220Z,49.05
2022-11-02T15:20:35.100Z,48.97
2022-11-02T15:23:24.070Z,49.01
2022-11-02T15:25:57.171Z,48.93
2022-11-02T15:28:25.994Z,49.21
2022-11-02T15:30:54.150Z,49.15
2022-11-02T15:33:26.497Z,49.25
2022-11-02T15:35:55.359Z,49.55
2022-11-02T15:38:31.487Z,49.79
2022-11-02T15:41:06.558Z,49.99
2022-11-02T15:43:43.880Z,49.95
2022-11-02T15:46:13.683Z,49.83
2022-11-02T15:48:44.139Z,50.05
2022-11-02T15:51:17.713Z,49.79
2022-11-02T15:54:12.118Z,49.96
2022-11-02T15:56:48.338Z,50.32
2022-11-02T15:59:37.097Z,50.29
2022-11-02T16:02:24.053Z,50.65
2022-11-02T16:04:52.721Z,50.88
2022-11-02T16:07:21.486Z,50.57
2022-11-02T16:09:48.936Z,50.75
2022-11-02T16:12:18.748Z,50.91
2022-11-02T16:14:47.030Z,50.91
2022-11-02T16:17:21.475Z,50.87
2022-11-02T16:19:49.173Z,50.86
2022-11-02T16:22:23.459Z,50.85
2022-11-02T16:24:50.972Z,51.05
2022-11-02T16:27:18.416Z,50.97
2022-11-02T16:29:45.897Z,51.09
2022-11-02T16:32:13.443Z,50.87
2022-11-02T16:34:41.936Z,51.28
2022-11-02T16:37:11.204Z,51.30
2022-11-02T16:39:41.989Z,51.22
2022-11-02T16:42:14.221Z,51.28
2022-11-02T16:44:43.072Z,51.33
2022-11-02T16:47:17.840Z,51.19
2022-11-02T16:50:00.147Z,51.42
2022-11-02T16:52:30.807Z,51.25
2022-11-02T16:54:59.649Z,51.24
2022-11-02T16:57:28.306Z,51.22
2022-11-02T16:59:56.686Z,51.27
2022-11-02T17:02:30.966Z,51.42
2022-11-02T17:05:02.416Z,51.66
2022-11-02T17:07:34.321Z,51.48
2022-11-02T17:10:04.636Z,51.63
2022-11-02T17:12:34.382Z,51.59
2022-11-02T17:15:02.361Z,51.46
2022-11-02T17:17:33.035Z,51.69
2022-11-02T17:20:16.582Z,51.45
2022-11-02T17:22:50.436Z,51.66
2022-11-02T17:25:22.796Z,51.53
2022-11-02T17:27:50.649Z,51.71
2022-11-02T17:30:49.449Z,51.61
2022-11-02T17:33:23.867Z,51.69
2022-11-02T17:35:52.011Z,51.76
2022-11-02T17:38:19.644Z,51.68
2022-11-02T17:40:51.969Z,51.65
2022-11-02T17:43:18.851Z,51.71
2022-11-02T17:45:46.332Z,51.72
2022-11-02T17:48:13.764Z,51.94
2022-11-02T17:50:41.196Z,51.74
2022-11-02T17:53:12.012Z,51.73
2022-11-02T17:55:39.457Z,51.71
2022-11-02T17:58:08.577Z,51.70
2022-11-02T18:00:36.293Z,51.79
2022-11-02T18:03:03.725Z,51.96
2022-11-02T18:05:32.100Z,51.72
2022-11-02T18:07:59.590Z,51.97
2022-11-02T18:10:28.370Z,51.86
2022-11-02T18:12:55.825Z,51.77
2022-11-02T18:15:25.351Z,51.72
2022-11-02T18:17:52.807Z,51.84
2022-11-02T18:20:20.428Z,51.86
2022-11-02T18:22:47.902Z,51.89
2022-11-02T18:25:16.351Z,51.77
2022-11-02T18:27:45.537Z,51.75
2022-11-02T18:30:14.405Z,51.85
2022-11-02T18:32:43.877Z,51.83
2022-11-02T18:35:12.251Z,51.78
2022-11-02T18:37:39.795Z,51.92
2022-11-02T18:40:08.471Z,51.75
2022-11-02T18:42:36.267Z,52.09
2022-11-02T18:45:03.805Z,51.80
2022-11-02T18:47:31.272Z,51.91
2022-11-02T18:50:00.689Z,51.86
2022-11-02T18:52:32.144Z,51.99
2022-11-02T18:55:03.194Z,51.89
2022-11-02T18:57:30.701Z,51.93
2022-11-02T18:59:58.236Z,52.17
2022-11-02T19:02:25.756Z,52.07
2022-11-02T19:04:53.310Z,51.98
2022-11-02T19:07:39.865Z,52.27
2022-11-02T19:10:07.660Z,51.99
2022-11-02T19:12:35.112Z,52.17
2022-11-02T19:15:02.646Z,52.19
2022-11-02T19:17:30.189Z,52.09
2022-11-02T19:19:57.709Z,52.22
2022-11-02T19:22:26.732Z,52.15
2022-11-02T19:24:54.245Z,51.90
2022-11-02T19:27:22.700Z,51.82
2022-11-02T19:29:50.354Z,51.94
2022-11-02T19:32:18.135Z,51.80
2022-11-02T19:34:45.598Z,51.93
2022-11-02T19:37:13.066Z,52.05
2022-11-02T19:39:41.915Z,51.79
2022-11-02T19:42:09.363Z,51.77
2022-11-02T19:44:42.247Z,51.81
2022-11-02T19:47:10.078Z,52.08
2022-11-02T19:49:37.551Z,52.08
2022-11-02T19:52:04.988Z,52.21
2022-11-02T19:54:32.446Z,52.19
2022-11-02T19:57:01.339Z,52.30
2022-11-02T19:59:30.324Z,52.03
2022-11-02T20:01:57.839Z,52.12
2022-11-02T20:04:25.425Z,52.13
2022-11-02T20:06:52.895Z,51.93
2022-11-02T20:09:20.492Z,51.91
2022-11-02T20:11:48.195Z,52.44
2022-11-02T20:14:17.462Z,52.49
2022-11-02T20:16:47.326Z,52.49
2022-11-02T20:19:21.267Z,52.48
2022-11-02T20:21:48.685Z,52.42
2022-11-02T20:24:16.340Z,52.35
2022-11-02T20:26:43.788Z,52.06
2022-11-02T20:29:15.294Z,52.49
2022-11-02T20:31:46.034Z,52.18
2022-11-02T20:34:13.634Z,52.31
2022-11-02T20:36:41.875Z,52.52
2022-11-02T20:39:10.834Z,52.52
2022-11-02T20:41:38.259Z,52.46
2022-11-02T20:44:05.716Z,52.65
2022-11-02T20:46:38.306Z,52.81
2022-11-02T20:49:21.054Z,52.80
2022-11-02T20:51:56.052Z,52.56
2022-11-02T20:54:23.796Z,52.73
2022-11-02T20:56:51.296Z,52.77
2022-11-02T20:59:18.963Z,53.22
2022-11-02T21:01:46.557Z,52.89
2022-11-02T21:04:20.155Z,53.13
2022-11-02T21:06:48.109Z,52.83
2022-11-02T21:09:15.565Z,53.33
2022-11-02T21:12:00.928Z,53.34
2022-11-02T21:14:28.388Z,53.16
2022-11-02T21:16:56.221Z,52.92
2022-11-02T21:19:25.000Z,52.87
2022-11-02T21:21:58.097Z,52.68
2022-11-02T21:24:27.044Z,52.84
2022-11-02T21:26:54.519Z,52.62
2022-11-02T21:29:22.545Z,52.86
2022-11-02T21:31:49.981Z,52.82
2022-11-02T21:34:17.419Z,52.63
2022-11-02T21:36:46.172Z,52.72
2022-11-02T21:39:13.725Z,52.68
2022-11-02T21:41:41.167Z,52.72
2022-11-02T21:44:08.804Z,52.87
2022-11-02T21:46:36.412Z,52.90
2022-11-02T21:49:03.953Z,52.74
2022-11-02T21:51:31.584Z,52.54
2022-11-02T21:54:00.355Z,52.39
2022-11-02T21:56:30.509Z,52.97
2022-11-02T21:58:57.763Z,52.60
2022-11-02T22:01:43.372Z,52.91
2022-11-02T22:04:11.665Z,52.76
2022-11-02T22:06:39.140Z,52.67
2022-11-02T22:09:09.184Z,52.57
2022-11-02T22:11:36.632Z,53.02
2022-11-02T22:14:04.174Z,52.54
2022-11-02T22:16:34.612Z,52.56
2022-11-02T22:19:03.010Z,52.82
2022-11-02T22:21:31.791Z,52.51
2022-11-02T22:23:59.232Z,52.34
2022-11-02T22:26:28.887Z,52.46
2022-11-02T22:28:57.640Z,52.52
2022-11-02T22:31:26.062Z,52.74
2022-11-02T22:33:54.222Z,52.71
2022-11-02T22:36:23.014Z,52.41
2022-11-02T22:38:53.516Z,52.44
2022-11-02T22:41:22.821Z,52.66
2022-11-02T22:43:52.657Z,52.26
2022-11-02T22:46:20.219Z,52.32
2022-11-02T22:48:47.667Z,52.49
2022-11-02T22:51:15.424Z,52.40
2022-11-02T22:53:42.855Z,52.26
2022-11-02T22:56:11.872Z,52.59
2022-11-02T22:58:39.778Z,52.53
2022-11-02T23:01:09.563Z,52.38
2022-11-02T23:03:37.211Z,52.38
2022-11-02T23:06:06.350Z,52.38
2022-11-02T23:08:34.285Z,52.33
2022-11-02T23:11:19.335Z,52.63
2022-11-02T23:13:47.671Z,52.28
2022-11-02T23:16:22.448Z,52.26
2022-11-02T23:19:11.976Z,52.57
2022-11-02T23:21:39.641Z,52.40
2022-11-02T23:24:25.535Z,52.53
2022-11-02T23:26:53.157Z,52.32
2022-11-02T23:31:59.008Z,52.46
2022-11-02T23:34:26.476Z,52.58
2022-11-02T23:36:52.963Z,52.44
2022-11-02T23:39:40.509Z,52.27
2022-11-02T23:42:07.960Z,52.28
2022-11-02T23:44:35.402Z,52.64
2022-11-02T23:47:04.162Z,52.44
2022-11-02T23:49:31.649Z,52.56
2022-11-02T23:52:16.663Z,52.42
2022-11-02T23:55:01.944Z,52.44
2022-11-02T23:57:30.085Z,52.65
2022-11-02T23:59:57.616Z,52.59
